TimeEDT,TemperatureF,Dew PointF,Humidity,Sea Level PressureIn,VisibilityMPH,Wind Direction,Wind SpeedMPH,Gust SpeedMPH,PrecipitationIn,Events,Conditions,WindDirDegrees,DateUTC
12:15 AM,60.8,57.2,88,30.23,10.0,Calm,Calm,-,N/A,,Clear,0,2013-05-26 04:15:00
12:35 AM,60.8,59.0,94,30.23,10.0,Calm,Calm,-,N/A,,Clear,0,2013-05-26 04:35:00
12:55 AM,59.0,57.2,94,30.22,10.0,Calm,Calm,-,N/A,,Clear,0,2013-05-26 04:55:00
1:15 AM,59.0,59.0,100,30.21,10.0,Calm,Calm,-,N/A,,Clear,0,2013-05-26 05:15:00
1:35 AM,59.0,59.0,100,30.21,10.0,Calm,Calm,-,N/A,,Clear,0,2013-05-26 05:35:00
1:55 AM,59.0,59.0,100,30.20,10.0,Calm,Calm,-,N/A,,Clear,0,2013-05-26 05:55:00
2:15 AM,59.0,57.2,94,30.20,10.0,Calm,Calm,-,N/A,,Clear,0,2013-05-26 06:15:00
2:35 AM,59.0,57.2,94,30.19,10.0,Calm,Calm,-,N/A,,Clear,0,2013-05-26 06:35:00
2:55 AM,59.0,57.2,94,30.18,7.0,Calm,Calm,-,N/A,,Clear,0,2013-05-26 06:55:00
3:15 AM,59.0,57.2,94,30.18,10.0,Calm,Calm,-,N/A,,Clear,0,2013-05-26 07:15:00
3:35 AM,59.0,57.2,94,30.18,7.0,Calm,Calm,-,N/A,,Clear,0,2013-05-26 07:35:00
3:55 AM,57.2,57.2,100,30.18,10.0,Calm,Calm,-,N/A,,Clear,0,2013-05-26 07:55:00
4:15 AM,57.2,57.2,100,30.19,7.0,Calm,Calm,-,N/A,,Clear,0,2013-05-26 08:15:00
4:35 AM,57.2,55.4,94,30.19,5.0,Calm,Calm,-,N/A,,Clear,0,2013-05-26 08:35:00
4:55 AM,57.2,55.4,94,30.19,3.0,Calm,Calm,-,N/A,,Clear,0,2013-05-26 08:55:00
5:15 AM,57.2,55.4,94,30.20,4.0,Calm,Calm,-,N/A,,Clear,0,2013-05-26 09:15:00
5:35 AM,57.2,55.4,94,30.21,3.0,Calm,Calm,-,N/A,,Clear,0,2013-05-26 09:35:00
5:55 AM,57.2,55.4,94,30.22,1.8,Calm,Calm,-,N/A,,Unknown,0,2013-05-26 09:55:00
6:15 AM,57.2,55.4,94,30.23,10.0,Calm,Calm,-,N/A,,Clear,0,2013-05-26 10:15:00
6:35 AM,57.2,55.4,94,30.24,4.0,Calm,Calm,-,N/A,,Clear,0,2013-05-26 10:35:00
6:55 AM,59.0,57.2,94,30.24,10.0,Calm,Calm,-,N/A,,Clear,0,2013-05-26 10:55:00
7:15 AM,59.0,57.2,94,30.24,10.0,Calm,Calm,-,N/A,,Clear,0,2013-05-26 11:15:00
7:35 AM,60.8,60.8,100,30.25,10.0,Calm,Calm,-,N/A,,Clear,0,2013-05-26 11:35:00
7:55 AM,62.6,62.6,100,30.25,10.0,Calm,Calm,-,N/A,,Clear,0,2013-05-26 11:55:00
8:15 AM,68.0,64.4,88,30.25,10.0,Calm,Calm,-,N/A,,Clear,0,2013-05-26 12:15:00
8:35 AM,69.8,64.4,83,30.26,10.0,Calm,Calm,-,N/A,,Clear,0,2013-05-26 12:35:00
8:55 AM,73.4,64.4,73,30.26,10.0,Calm,Calm,-,N/A,,Clear,0,2013-05-26 12:55:00
9:15 AM,77.0,64.4,65,30.26,10.0,Calm,Calm,-,N/A,,Clear,0,2013-05-26 13:15:00
9:35 AM,78.8,62.6,57,30.27,10.0,Calm,Calm,-,N/A,,Clear,0,2013-05-26 13:35:00
9:55 AM,78.8,60.8,54,30.27,10.0,SW,3.5,-,N/A,,Clear,230,2013-05-26 13:55:00
10:15 AM,80.6,59.0,48,30.27,10.0,West,4.6,-,N/A,,Clear,280,2013-05-26 14:15:00
10:35 AM,80.6,59.0,48,30.27,10.0,NW,3.5,-,N/A,,Clear,320,2013-05-26 14:35:00
10:55 AM,80.6,55.4,42,30.27,10.0,NNE,3.5,-,N/A,,Clear,20,2013-05-26 14:55:00
11:15 AM,82.4,55.4,39,30.26,10.0,SSW,3.5,-,N/A,,Clear,200,2013-05-26 15:15:00
11:35 AM,82.4,55.4,39,30.26,10.0,WSW,3.5,-,N/A,,Clear,250,2013-05-26 15:35:00
11:55 AM,82.4,55.4,39,30.26,10.0,Calm,Calm,-,N/A,,Clear,0,2013-05-26 15:55:00
12:15 PM,82.4,57.2,42,30.26,10.0,Calm,Calm,-,N/A,,Clear,0,2013-05-26 16:15:00
12:35 PM,84.2,55.4,37,30.26,10.0,WSW,4.6,-,N/A,,Clear,250,2013-05-26 16:35:00
12:55 PM,84.2,57.2,40,30.25,10.0,East,4.6,-,N/A,,Clear,80,2013-05-26 16:55:00
1:15 PM,86.0,55.4,35,30.25,10.0,North,3.5,-,N/A,,Clear,10,2013-05-26 17:15:00
1:35 PM,86.0,55.4,35,30.24,10.0,NW,5.8,-,N/A,,Clear,320,2013-05-26 17:35:00
1:55 PM,86.0,55.4,35,30.23,10.0,ESE,8.1,-,N/A,,Clear,110,2013-05-26 17:55:00
2:15 PM,84.2,59.0,42,30.23,10.0,East,5.8,-,N/A,,Clear,100,2013-05-26 18:15:00
2:35 PM,86.0,59.0,40,30.23,10.0,SE,9.2,-,N/A,,Clear,130,2013-05-26 18:35:00
2:55 PM,84.2,59.0,42,30.22,10.0,ESE,9.2,-,N/A,,Clear,110,2013-05-26 18:55:00
3:15 PM,84.2,59.0,42,30.21,10.0,SE,8.1,-,N/A,,Clear,140,2013-05-26 19:15:00
3:35 PM,84.2,57.2,40,30.21,10.0,SSE,9.2,16.1,N/A,,Clear,150,2013-05-26 19:35:00
3:55 PM,86.0,57.2,37,30.20,10.0,SE,9.2,-,N/A,,Clear,130,2013-05-26 19:55:00
4:15 PM,82.4,57.2,42,30.20,10.0,ESE,9.2,-,N/A,,Clear,120,2013-05-26 20:15:00
4:35 PM,84.2,55.4,37,30.20,10.0,SE,12.7,-,N/A,,Clear,140,2013-05-26 20:35:00
4:55 PM,82.4,55.4,39,30.20,10.0,SE,8.1,-,N/A,,Clear,140,2013-05-26 20:55:00
5:15 PM,82.4,55.4,39,30.19,10.0,SE,10.4,-,N/A,,Clear,130,2013-05-26 21:15:00
5:35 PM,82.4,55.4,39,30.20,10.0,SE,10.4,-,N/A,,Clear,130,2013-05-26 21:35:00
5:55 PM,82.4,55.4,39,30.19,10.0,SE,6.9,10.4,N/A,,Clear,130,2013-05-26 21:55:00
6:15 PM,82.4,53.6,37,30.19,10.0,SE,6.9,-,N/A,,Clear,140,2013-05-26 22:15:00
6:35 PM,80.6,57.2,45,30.18,10.0,SSE,9.2,-,N/A,,Clear,150,2013-05-26 22:35:00
6:55 PM,80.6,57.2,45,30.18,10.0,SSE,6.9,-,N/A,,Clear,150,2013-05-26 22:55:00
7:15 PM,78.8,57.2,47,30.18,10.0,SSE,9.2,-,N/A,,Clear,160,2013-05-26 23:15:00
7:35 PM,78.8,57.2,47,30.19,10.0,SSE,9.2,-,N/A,,Clear,150,2013-05-26 23:35:00
7:55 PM,78.8,57.2,47,30.19,10.0,SSE,5.8,-,N/A,,Clear,150,2013-05-26 23:55:00
8:15 PM,77.0,59.0,54,30.19,10.0,SSE,5.8,-,N/A,,Clear,150,2013-05-27 00:15:00
8:35 PM,77.0,59.0,54,30.19,10.0,SSE,3.5,-,N/A,,Clear,150,2013-05-27 00:35:00
8:55 PM,77.0,59.0,54,30.19,10.0,SSE,3.5,-,N/A,,Clear,150,2013-05-27 00:55:00
9:15 PM,75.2,59.0,57,30.19,10.0,Calm,Calm,-,N/A,,Clear,0,2013-05-27 01:15:00
9:35 PM,75.2,59.0,57,30.19,10.0,Calm,Calm,-,N/A,,Clear,0,2013-05-27 01:35:00
9:55 PM,69.8,60.8,73,30.20,10.0,Calm,Calm,-,N/A,,Clear,0,2013-05-27 01:55:00
10:15 PM,68.0,60.8,78,30.20,10.0,Calm,Calm,-,N/A,,Clear,0,2013-05-27 02:15:00
10:35 PM,68.0,60.8,78,30.21,10.0,Calm,Calm,-,N/A,,Clear,0,2013-05-27 02:35:00
10:55 PM,71.6,60.8,69,30.21,10.0,Calm,Calm,-,N/A,,Clear,0,2013-05-27 02:55:00
11:15 PM,69.8,60.8,73,30.21,10.0,Calm,Calm,-,N/A,,Clear,0,2013-05-27 03:15:00
11:35 PM,69.8,60.8,73,30.21,10.0,Calm,Calm,-,N/A,,Clear,0,2013-05-27 03:35:00
11:55 PM,68.0,62.6,83,30.21,10.0,Calm,Calm,-,N/A,,Clear,0,2013-05-27 03:55:00